sensor_id;sensor_type;location;lat;lon;timestamp;P1;durP1;ratioP1;P2;durP2;ratioP2
1294;SDS011;640;48.310;11.728;2022-11-15T00:01:15;15.70;;;11.30;;
1294;SDS011;640;48.310;11.728;2022-11-15T00:06:14;17.63;;;11.93;;
1294;SDS011;640;48.310;11.728;2022-11-15T00:08:42;16.33;;;12.13;;
1294;SDS011;640;48.310;11.728;2022-11-15T00:11:11;15.43;;;11.43;;
1294;SDS011;640;48.310;11.728;2022-11-15T00:13:40;15.80;;;11.57;;
1294;SDS011;640;48.310;11.728;2022-11-15T00:16:09;15.30;;;11.68;;
1294;SDS011;640;48.310;11.728;2022-11-15T00:18:38;14.93;;;11.50;;
1294;SDS011;640;48.310;11.728;2022-11-15T00:21:10;14.98;;;11.13;;
1294;SDS011;640;48.310;11.728;2022-11-15T00:23:41;15.02;;;11.63;;
1294;SDS011;640;48.310;11.728;2022-11-15T00:26:10;15.40;;;11.53;;
1294;SDS011;640;48.310;11.728;2022-11-15T00:31:09;16.25;;;11.77;;
1294;SDS011;640;48.310;11.728;2022-11-15T00:33:39;16.83;;;11.68;;
1294;SDS011;640;48.310;11.728;2022-11-15T00:36:08;15.65;;;11.25;;
1294;SDS011;640;48.310;11.728;2022-11-15T00:38:37;16.10;;;12.20;;
1294;SDS011;640;48.310;11.728;2022-11-15T00:41:08;14.65;;;11.38;;
1294;SDS011;640;48.310;11.728;2022-11-15T00:43:37;15.70;;;11.03;;
1294;SDS011;640;48.310;11.728;2022-11-15T00:46:06;18.15;;;11.65;;
1294;SDS011;640;48.310;11.728;2022-11-15T00:48:36;14.98;;;11.20;;
1294;SDS011;640;48.310;11.728;2022-11-15T00:51:05;17.75;;;11.38;;
1294;SDS011;640;48.310;11.728;2022-11-15T00:53:33;13.93;;;10.77;;
1294;SDS011;640;48.310;11.728;2022-11-15T00:56:01;14.70;;;11.10;;
1294;SDS011;640;48.310;11.728;2022-11-15T00:58:31;17.52;;;11.93;;
1294;SDS011;640;48.310;11.728;2022-11-15T01:01:06;14.70;;;11.37;;
1294;SDS011;640;48.310;11.728;2022-11-15T01:03:36;15.23;;;11.70;;
1294;SDS011;640;48.310;11.728;2022-11-15T01:06:05;16.25;;;11.80;;
1294;SDS011;640;48.310;11.728;2022-11-15T01:08:34;15.05;;;11.82;;
1294;SDS011;640;48.310;11.728;2022-11-15T01:11:03;17.15;;;11.48;;
1294;SDS011;640;48.310;11.728;2022-11-15T01:13:33;17.52;;;11.98;;
1294;SDS011;640;48.310;11.728;2022-11-15T01:16:06;13.80;;;11.27;;
1294;SDS011;640;48.310;11.728;2022-11-15T01:18:36;17.27;;;11.55;;
1294;SDS011;640;48.310;11.728;2022-11-15T01:21:05;15.68;;;11.82;;
1294;SDS011;640;48.310;11.728;2022-11-15T01:23:34;16.88;;;11.25;;
1294;SDS011;640;48.310;11.728;2022-11-15T01:26:03;15.85;;;10.70;;
1294;SDS011;640;48.310;11.728;2022-11-15T01:28:35;14.27;;;10.95;;
1294;SDS011;640;48.310;11.728;2022-11-15T01:31:06;15.40;;;11.68;;
1294;SDS011;640;48.310;11.728;2022-11-15T01:33:36;16.27;;;11.15;;
1294;SDS011;640;48.310;11.728;2022-11-15T01:36:05;15.13;;;11.10;;
1294;SDS011;640;48.310;11.728;2022-11-15T01:38:35;15.80;;;12.20;;
1294;SDS011;640;48.310;11.728;2022-11-15T01:41:04;15.60;;;10.88;;
1294;SDS011;640;48.310;11.728;2022-11-15T01:43:33;16.50;;;11.63;;
1294;SDS011;640;48.310;11.728;2022-11-15T01:46:04;14.15;;;10.52;;
1294;SDS011;640;48.310;11.728;2022-11-15T01:48:36;17.73;;;12.13;;
1294;SDS011;640;48.310;11.728;2022-11-15T01:51:06;17.30;;;13.15;;
1294;SDS011;640;48.310;11.728;2022-11-15T01:53:35;18.48;;;12.90;;
1294;SDS011;640;48.310;11.728;2022-11-15T01:58:36;18.90;;;12.40;;
1294;SDS011;640;48.310;11.728;2022-11-15T02:01:05;16.60;;;12.48;;
1294;SDS011;640;48.310;11.728;2022-11-15T02:03:34;15.38;;;11.95;;
1294;SDS011;640;48.310;11.728;2022-11-15T02:06:06;16.02;;;11.70;;
1294;SDS011;640;48.310;11.728;2022-11-15T02:08:34;15.50;;;12.07;;
1294;SDS011;640;48.310;11.728;2022-11-15T02:11:04;19.80;;;11.90;;
1294;SDS011;640;48.310;11.728;2022-11-15T02:13:32;15.55;;;11.48;;
1294;SDS011;640;48.310;11.728;2022-11-15T02:16:03;14.95;;;11.20;;
1294;SDS011;640;48.310;11.728;2022-11-15T02:18:39;14.32;;;11.65;;
1294;SDS011;640;48.310;11.728;2022-11-15T02:21:14;14.02;;;11.48;;
1294;SDS011;640;48.310;11.728;2022-11-15T02:27:00;16.98;;;12.13;;
1294;SDS011;640;48.310;11.728;2022-11-15T02:29:57;17.27;;;12.63;;
1294;SDS011;640;48.310;11.728;2022-11-15T02:32:33;15.73;;;12.02;;
1294;SDS011;640;48.310;11.728;2022-11-15T02:35:07;13.38;;;10.82;;
1294;SDS011;640;48.310;11.728;2022-11-15T02:37:42;15.50;;;11.40;;
1294;SDS011;640;48.310;11.728;2022-11-15T02:40:13;14.55;;;11.00;;
1294;SDS011;640;48.310;11.728;2022-11-15T02:42:47;18.10;;;11.93;;
1294;SDS011;640;48.310;11.728;2022-11-15T02:45:36;15.15;;;11.57;;
1294;SDS011;640;48.310;11.728;2022-11-15T02:48:16;14.40;;;10.93;;
1294;SDS011;640;48.310;11.728;2022-11-15T02:50:45;13.30;;;9.77;;
1294;SDS011;640;48.310;11.728;2022-11-15T02:53:14;13.02;;;11.23;;
1294;SDS011;640;48.310;11.728;2022-11-15T02:55:43;16.10;;;11.32;;
1294;SDS011;640;48.310;11.728;2022-11-15T03:01:08;14.95;;;10.95;;
1294;SDS011;640;48.310;11.728;2022-11-15T03:03:45;11.40;;;9.88;;
1294;SDS011;640;48.310;11.728;2022-11-15T03:06:20;13.43;;;10.43;;
1294;SDS011;640;48.310;11.728;2022-11-15T03:08:57;14.70;;;10.10;;
1294;SDS011;640;48.310;11.728;2022-11-15T03:11:32;16.80;;;10.88;;
1294;SDS011;640;48.310;11.728;2022-11-15T03:14:04;12.80;;;10.02;;
1294;SDS011;640;48.310;11.728;2022-11-15T03:16:39;11.65;;;9.50;;
1294;SDS011;640;48.310;11.728;2022-11-15T03:19:13;12.57;;;9.95;;
1294;SDS011;640;48.310;11.728;2022-11-15T03:21:44;12.05;;;9.57;;
1294;SDS011;640;48.310;11.728;2022-11-15T03:24:14;16.52;;;11.35;;
1294;SDS011;640;48.310;11.728;2022-11-15T03:26:51;10.52;;;9.38;;
1294;SDS011;640;48.310;11.728;2022-11-15T03:29:22;12.32;;;9.45;;
1294;SDS011;640;48.310;11.728;2022-11-15T03:31:53;13.07;;;9.43;;
1294;SDS011;640;48.310;11.728;2022-11-15T03:34:28;13.85;;;10.23;;
1294;SDS011;640;48.310;11.728;2022-11-15T03:36:59;12.02;;;9.73;;
1294;SDS011;640;48.310;11.728;2022-11-15T03:39:28;12.80;;;10.25;;
1294;SDS011;640;48.310;11.728;2022-11-15T03:41:59;12.25;;;9.80;;
1294;SDS011;640;48.310;11.728;2022-11-15T03:44:35;13.05;;;10.07;;
1294;SDS011;640;48.310;11.728;2022-11-15T03:47:09;13.40;;;10.05;;
1294;SDS011;640;48.310;11.728;2022-11-15T03:49:40;13.00;;;9.65;;
1294;SDS011;640;48.310;11.728;2022-11-15T03:52:11;14.63;;;10.23;;
1294;SDS011;640;48.310;11.728;2022-11-15T03:54:47;14.52;;;9.18;;
1294;SDS011;640;48.310;11.728;2022-11-15T03:57:17;11.88;;;9.70;;
1294;SDS011;640;48.310;11.728;2022-11-15T03:59:45;11.98;;;9.85;;
1294;SDS011;640;48.310;11.728;2022-11-15T04:02:13;13.68;;;9.60;;
1294;SDS011;640;48.310;11.728;2022-11-15T04:04:43;12.98;;;9.43;;
1294;SDS011;640;48.310;11.728;2022-11-15T04:07:12;15.20;;;9.53;;
1294;SDS011;640;48.310;11.728;2022-11-15T04:09:41;12.63;;;9.32;;
1294;SDS011;640;48.310;11.728;2022-11-15T04:12:23;12.85;;;9.48;;
1294;SDS011;640;48.310;11.728;2022-11-15T04:14:58;11.88;;;9.48;;
1294;SDS011;640;48.310;11.728;2022-11-15T04:17:37;11.77;;;8.77;;
1294;SDS011;640;48.310;11.728;2022-11-15T04:20:10;10.65;;;9.25;;
1294;SDS011;640;48.310;11.728;2022-11-15T04:22:58;13.02;;;9.18;;
1294;SDS011;640;48.310;11.728;2022-11-15T04:25:44;15.07;;;10.02;;
1294;SDS011;640;48.310;11.728;2022-11-15T04:28:13;12.50;;;9.73;;
1294;SDS011;640;48.310;11.728;2022-11-15T04:30:41;11.50;;;9.15;;
1294;SDS011;640;48.310;11.728;2022-11-15T04:33:10;13.07;;;9.50;;
1294;SDS011;640;48.310;11.728;2022-11-15T04:35:39;12.30;;;9.30;;
1294;SDS011;640;48.310;11.728;2022-11-15T04:40:36;13.02;;;9.52;;
1294;SDS011;640;48.310;11.728;2022-11-15T04:43:05;15.43;;;10.40;;
1294;SDS011;640;48.310;11.728;2022-11-15T04:45:33;13.20;;;10.02;;
1294;SDS011;640;48.310;11.728;2022-11-15T04:48:02;13.82;;;10.20;;
1294;SDS011;640;48.310;11.728;2022-11-15T04:50:30;12.30;;;9.60;;
1294;SDS011;640;48.310;11.728;2022-11-15T04:53:00;13.00;;;10.02;;
1294;SDS011;640;48.310;11.728;2022-11-15T04:55:28;13.65;;;10.45;;
1294;SDS011;640;48.310;11.728;2022-11-15T04:57:57;16.45;;;12.57;;
1294;SDS011;640;48.310;11.728;2022-11-15T05:00:27;17.35;;;13.95;;
1294;SDS011;640;48.310;11.728;2022-11-15T05:02:56;15.20;;;11.43;;
1294;SDS011;640;48.310;11.728;2022-11-15T05:05:42;15.88;;;11.48;;
1294;SDS011;640;48.310;11.728;2022-11-15T05:08:12;14.45;;;11.65;;
1294;SDS011;640;48.310;11.728;2022-11-15T05:10:40;14.50;;;11.05;;
1294;SDS011;640;48.310;11.728;2022-11-15T05:13:09;12.18;;;9.80;;
1294;SDS011;640;48.310;11.728;2022-11-15T05:15:37;12.63;;;10.05;;
1294;SDS011;640;48.310;11.728;2022-11-15T05:18:05;13.55;;;10.40;;
1294;SDS011;640;48.310;11.728;2022-11-15T05:20:34;17.38;;;10.45;;
1294;SDS011;640;48.310;11.728;2022-11-15T05:23:02;13.75;;;10.27;;
1294;SDS011;640;48.310;11.728;2022-11-15T05:25:32;13.30;;;10.25;;
1294;SDS011;640;48.310;11.728;2022-11-15T05:28:00;13.35;;;10.55;;
1294;SDS011;640;48.310;11.728;2022-11-15T05:30:29;15.05;;;10.75;;
1294;SDS011;640;48.310;11.728;2022-11-15T05:32:58;14.07;;;10.43;;
1294;SDS011;640;48.310;11.728;2022-11-15T05:35:28;13.60;;;11.13;;
1294;SDS011;640;48.310;11.728;2022-11-15T05:37:58;15.02;;;11.27;;
1294;SDS011;640;48.310;11.728;2022-11-15T05:40:27;17.13;;;11.73;;
1294;SDS011;640;48.310;11.728;2022-11-15T05:42:57;18.77;;;12.70;;
1294;SDS011;640;48.310;11.728;2022-11-15T05:45:28;18.17;;;12.57;;
1294;SDS011;640;48.310;11.728;2022-11-15T05:47:57;16.40;;;11.35;;
1294;SDS011;640;48.310;11.728;2022-11-15T05:50:26;15.25;;;11.15;;
1294;SDS011;640;48.310;11.728;2022-11-15T05:52:55;15.52;;;11.43;;
1294;SDS011;640;48.310;11.728;2022-11-15T05:55:30;14.98;;;11.18;;
1294;SDS011;640;48.310;11.728;2022-11-15T05:58:00;14.77;;;10.93;;
1294;SDS011;640;48.310;11.728;2022-11-15T06:00:29;16.85;;;11.77;;
1294;SDS011;640;48.310;11.728;2022-11-15T06:02:57;14.68;;;11.10;;
1294;SDS011;640;48.310;11.728;2022-11-15T06:05:25;14.48;;;10.70;;
1294;SDS011;640;48.310;11.728;2022-11-15T06:07:56;20.73;;;10.85;;
1294;SDS011;640;48.310;11.728;2022-11-15T06:10:25;15.60;;;11.23;;
1294;SDS011;640;48.310;11.728;2022-11-15T06:12:56;17.88;;;10.82;;
1294;SDS011;640;48.310;11.728;2022-11-15T06:15:27;15.23;;;11.20;;
1294;SDS011;640;48.310;11.728;2022-11-15T06:17:55;17.00;;;12.07;;
1294;SDS011;640;48.310;11.728;2022-11-15T06:20:26;16.58;;;11.57;;
1294;SDS011;640;48.310;11.728;2022-11-15T06:22:56;14.40;;;10.82;;
1294;SDS011;640;48.310;11.728;2022-11-15T06:27:54;15.52;;;11.13;;
1294;SDS011;640;48.310;11.728;2022-11-15T06:30:24;17.20;;;11.02;;
1294;SDS011;640;48.310;11.728;2022-11-15T06:32:59;18.33;;;11.57;;
1294;SDS011;640;48.310;11.728;2022-11-15T06:35:29;15.48;;;11.50;;
1294;SDS011;640;48.310;11.728;2022-11-15T06:38:01;17.08;;;12.23;;
1294;SDS011;640;48.310;11.728;2022-11-15T06:40:32;18.20;;;11.43;;
1294;SDS011;640;48.310;11.728;2022-11-15T06:43:01;14.32;;;11.18;;
1294;SDS011;640;48.310;11.728;2022-11-15T06:45:30;29.02;;;16.67;;
1294;SDS011;640;48.310;11.728;2022-11-15T06:48:00;39.33;;;19.95;;
1294;SDS011;640;48.310;11.728;2022-11-15T06:50:29;33.60;;;18.10;;
1294;SDS011;640;48.310;11.728;2022-11-15T06:53:00;22.58;;;14.80;;
1294;SDS011;640;48.310;11.728;2022-11-15T06:55:29;15.88;;;12.32;;
1294;SDS011;640;48.310;11.728;2022-11-15T06:57:58;19.70;;;12.18;;
1294;SDS011;640;48.310;11.728;2022-11-15T07:00:26;17.27;;;12.48;;
1294;SDS011;640;48.310;11.728;2022-11-15T07:02:54;18.58;;;12.98;;
1294;SDS011;640;48.310;11.728;2022-11-15T07:05:24;20.00;;;13.13;;
1294;SDS011;640;48.310;11.728;2022-11-15T07:07:53;19.45;;;12.32;;
1294;SDS011;640;48.310;11.728;2022-11-15T07:10:22;17.65;;;12.60;;
1294;SDS011;640;48.310;11.728;2022-11-15T07:12:52;17.73;;;12.27;;
1294;SDS011;640;48.310;11.728;2022-11-15T07:15:22;15.25;;;10.88;;
1294;SDS011;640;48.310;11.728;2022-11-15T07:20:19;15.73;;;10.77;;
1294;SDS011;640;48.310;11.728;2022-11-15T07:22:49;14.70;;;9.75;;
1294;SDS011;640;48.310;11.728;2022-11-15T07:25:17;15.35;;;11.70;;
1294;SDS011;640;48.310;11.728;2022-11-15T07:27:53;17.30;;;12.38;;
1294;SDS011;640;48.310;11.728;2022-11-15T07:30:23;15.70;;;11.20;;
1294;SDS011;640;48.310;11.728;2022-11-15T07:32:52;19.25;;;11.50;;
1294;SDS011;640;48.310;11.728;2022-11-15T07:35:21;18.13;;;12.40;;
1294;SDS011;640;48.310;11.728;2022-11-15T07:37:54;15.43;;;11.68;;
1294;SDS011;640;48.310;11.728;2022-11-15T07:40:23;14.68;;;11.35;;
1294;SDS011;640;48.310;11.728;2022-11-15T07:42:52;13.73;;;10.30;;
1294;SDS011;640;48.310;11.728;2022-11-15T07:45:24;13.98;;;10.40;;
1294;SDS011;640;48.310;11.728;2022-11-15T07:47:53;14.02;;;10.88;;
1294;SDS011;640;48.310;11.728;2022-11-15T07:50:22;17.13;;;10.73;;
1294;SDS011;640;48.310;11.728;2022-11-15T07:52:56;12.38;;;10.30;;
1294;SDS011;640;48.310;11.728;2022-11-15T07:55:26;15.00;;;10.57;;
1294;SDS011;640;48.310;11.728;2022-11-15T08:00:28;15.75;;;10.82;;
1294;SDS011;640;48.310;11.728;2022-11-15T08:03:03;15.32;;;11.25;;
1294;SDS011;640;48.310;11.728;2022-11-15T08:05:32;15.82;;;10.80;;
1294;SDS011;640;48.310;11.728;2022-11-15T08:08:02;17.00;;;11.38;;
1294;SDS011;640;48.310;11.728;2022-11-15T08:10:31;17.10;;;11.20;;
1294;SDS011;640;48.310;11.728;2022-11-15T08:13:07;13.77;;;10.82;;
1294;SDS011;640;48.310;11.728;2022-11-15T08:15:36;15.18;;;11.07;;
1294;SDS011;640;48.310;11.728;2022-11-15T08:18:06;15.10;;;11.35;;
1294;SDS011;640;48.310;11.728;2022-11-15T08:20:36;15.50;;;11.35;;
1294;SDS011;640;48.310;11.728;2022-11-15T08:23:06;14.38;;;10.82;;
1294;SDS011;640;48.310;11.728;2022-11-15T08:25:35;13.70;;;10.77;;
1294;SDS011;640;48.310;11.728;2022-11-15T08:28:04;16.85;;;11.30;;
1294;SDS011;640;48.310;11.728;2022-11-15T08:30:34;17.25;;;11.43;;
1294;SDS011;640;48.310;11.728;2022-11-15T08:33:04;13.48;;;10.13;;
1294;SDS011;640;48.310;11.728;2022-11-15T08:35:32;16.17;;;10.43;;
1294;SDS011;640;48.310;11.728;2022-11-15T08:38:00;13.45;;;10.50;;
1294;SDS011;640;48.310;11.728;2022-11-15T08:40:30;14.10;;;10.25;;
1294;SDS011;640;48.310;11.728;2022-11-15T08:42:59;12.13;;;10.38;;
1294;SDS011;640;48.310;11.728;2022-11-15T08:45:29;13.07;;;9.55;;
1294;SDS011;640;48.310;11.728;2022-11-15T08:47:57;11.52;;;9.32;;
1294;SDS011;640;48.310;11.728;2022-11-15T08:50:26;11.45;;;9.38;;
1294;SDS011;640;48.310;11.728;2022-11-15T08:52:54;10.13;;;8.75;;
1294;SDS011;640;48.310;11.728;2022-11-15T08:55:22;12.05;;;8.73;;
1294;SDS011;640;48.310;11.728;2022-11-15T08:57:52;12.35;;;8.68;;
1294;SDS011;640;48.310;11.728;2022-11-15T09:00:21;12.53;;;9.03;;
1294;SDS011;640;48.310;11.728;2022-11-15T09:02:49;11.10;;;8.65;;
1294;SDS011;640;48.310;11.728;2022-11-15T09:05:18;12.02;;;8.75;;
1294;SDS011;640;48.310;11.728;2022-11-15T09:07:47;12.02;;;8.88;;
1294;SDS011;640;48.310;11.728;2022-11-15T09:10:15;10.73;;;8.48;;
1294;SDS011;640;48.310;11.728;2022-11-15T09:12:43;10.27;;;8.88;;
1294;SDS011;640;48.310;11.728;2022-11-15T09:15:16;10.80;;;8.30;;
1294;SDS011;640;48.310;11.728;2022-11-15T09:17:46;12.57;;;9.00;;
1294;SDS011;640;48.310;11.728;2022-11-15T09:20:15;10.55;;;8.10;;
1294;SDS011;640;48.310;11.728;2022-11-15T09:22:43;9.13;;;7.38;;
1294;SDS011;640;48.310;11.728;2022-11-15T09:25:12;8.77;;;7.65;;
1294;SDS011;640;48.310;11.728;2022-11-15T09:27:40;7.95;;;6.70;;
1294;SDS011;640;48.310;11.728;2022-11-15T09:30:09;8.10;;;6.63;;
1294;SDS011;640;48.310;11.728;2022-11-15T09:32:39;7.28;;;6.43;;
1294;SDS011;640;48.310;11.728;2022-11-15T09:35:08;7.63;;;6.85;;
1294;SDS011;640;48.310;11.728;2022-11-15T09:37:36;10.18;;;6.60;;
1294;SDS011;640;48.310;11.728;2022-11-15T09:40:06;8.18;;;6.57;;
1294;SDS011;640;48.310;11.728;2022-11-15T09:42:42;8.73;;;6.50;;
1294;SDS011;640;48.310;11.728;2022-11-15T09:45:17;6.68;;;5.97;;
1294;SDS011;640;48.310;11.728;2022-11-15T09:47:55;8.80;;;6.57;;
1294;SDS011;640;48.310;11.728;2022-11-15T09:50:31;7.72;;;6.65;;
1294;SDS011;640;48.310;11.728;2022-11-15T09:53:02;7.53;;;6.20;;
1294;SDS011;640;48.310;11.728;2022-11-15T09:55:32;7.25;;;6.00;;
1294;SDS011;640;48.310;11.728;2022-11-15T09:58:07;6.78;;;6.07;;
1294;SDS011;640;48.310;11.728;2022-11-15T10:00:42;8.05;;;6.55;;
1294;SDS011;640;48.310;11.728;2022-11-15T10:03:16;7.10;;;6.40;;
1294;SDS011;640;48.310;11.728;2022-11-15T10:05:55;9.65;;;6.78;;
1294;SDS011;640;48.310;11.728;2022-11-15T10:08:31;8.13;;;6.80;;
1294;SDS011;640;48.310;11.728;2022-11-15T10:11:06;9.10;;;6.18;;
1294;SDS011;640;48.310;11.728;2022-11-15T10:13:58;7.50;;;6.63;;
1294;SDS011;640;48.310;11.728;2022-11-15T10:16:42;8.27;;;6.53;;
1294;SDS011;640;48.310;11.728;2022-11-15T10:19:38;7.88;;;6.10;;
1294;SDS011;640;48.310;11.728;2022-11-15T10:22:13;8.85;;;7.10;;
1294;SDS011;640;48.310;11.728;2022-11-15T10:24:46;9.07;;;6.60;;
1294;SDS011;640;48.310;11.728;2022-11-15T10:27:16;9.40;;;6.93;;
1294;SDS011;640;48.310;11.728;2022-11-15T10:29:46;7.22;;;6.20;;
1294;SDS011;640;48.310;11.728;2022-11-15T10:32:17;9.48;;;7.30;;
1294;SDS011;640;48.310;11.728;2022-11-15T10:34:48;9.55;;;7.07;;
1294;SDS011;640;48.310;11.728;2022-11-15T10:37:26;8.32;;;7.13;;
1294;SDS011;640;48.310;11.728;2022-11-15T10:40:05;12.68;;;7.30;;
1294;SDS011;640;48.310;11.728;2022-11-15T10:42:34;8.70;;;7.80;;
1294;SDS011;640;48.310;11.728;2022-11-15T10:45:06;8.55;;;7.18;;
1294;SDS011;640;48.310;11.728;2022-11-15T10:47:51;7.78;;;6.82;;
1294;SDS011;640;48.310;11.728;2022-11-15T10:50:27;9.95;;;7.63;;
1294;SDS011;640;48.310;11.728;2022-11-15T10:52:56;9.07;;;7.05;;
1294;SDS011;640;48.310;11.728;2022-11-15T10:55:26;8.30;;;6.90;;
1294;SDS011;640;48.310;11.728;2022-11-15T10:57:56;12.82;;;7.00;;
1294;SDS011;640;48.310;11.728;2022-11-15T11:00:29;9.85;;;7.15;;
1294;SDS011;640;48.310;11.728;2022-11-15T11:03:00;7.65;;;6.78;;
1294;SDS011;640;48.310;11.728;2022-11-15T11:05:32;10.20;;;6.82;;
1294;SDS011;640;48.310;11.728;2022-11-15T11:08:19;9.65;;;6.63;;
1294;SDS011;640;48.310;11.728;2022-11-15T11:10:52;8.57;;;6.70;;
1294;SDS011;640;48.310;11.728;2022-11-15T11:13:28;7.45;;;6.60;;
1294;SDS011;640;48.310;11.728;2022-11-15T11:15:59;10.30;;;6.78;;
1294;SDS011;640;48.310;11.728;2022-11-15T11:18:36;9.00;;;6.82;;
1294;SDS011;640;48.310;11.728;2022-11-15T11:21:09;7.78;;;6.97;;
1294;SDS011;640;48.310;11.728;2022-11-15T11:23:43;7.85;;;6.65;;
1294;SDS011;640;48.310;11.728;2022-11-15T11:26:18;7.70;;;6.30;;
1294;SDS011;640;48.310;11.728;2022-11-15T11:29:07;9.57;;;6.28;;
1294;SDS011;640;48.310;11.728;2022-11-15T11:31:47;9.02;;;6.40;;
1294;SDS011;640;48.310;11.728;2022-11-15T11:34:19;6.85;;;6.15;;
1294;SDS011;640;48.310;11.728;2022-11-15T11:37:01;10.03;;;6.87;;
1294;SDS011;640;48.310;11.728;2022-11-15T11:39:34;7.25;;;6.18;;
1294;SDS011;640;48.310;11.728;2022-11-15T11:42:10;7.10;;;6.28;;
1294;SDS011;640;48.310;11.728;2022-11-15T11:44:48;8.13;;;6.22;;
1294;SDS011;640;48.310;11.728;2022-11-15T11:47:23;7.35;;;6.30;;
1294;SDS011;640;48.310;11.728;2022-11-15T11:49:53;7.57;;;6.55;;
1294;SDS011;640;48.310;11.728;2022-11-15T11:52:27;7.00;;;6.00;;
1294;SDS011;640;48.310;11.728;2022-11-15T11:54:59;8.85;;;6.93;;
1294;SDS011;640;48.310;11.728;2022-11-15T11:57:33;7.93;;;6.40;;
1294;SDS011;640;48.310;11.728;2022-11-15T12:00:09;7.03;;;6.30;;
1294;SDS011;640;48.310;11.728;2022-11-15T12:02:43;7.80;;;6.00;;
1294;SDS011;640;48.310;11.728;2022-11-15T12:05:16;10.07;;;5.78;;
1294;SDS011;640;48.310;11.728;2022-11-15T12:07:49;7.53;;;6.47;;
1294;SDS011;640;48.310;11.728;2022-11-15T12:10:20;7.18;;;6.47;;
1294;SDS011;640;48.310;11.728;2022-11-15T12:12:55;7.65;;;5.82;;
1294;SDS011;640;48.310;11.728;2022-11-15T12:15:29;10.02;;;6.30;;
1294;SDS011;640;48.310;11.728;2022-11-15T12:18:00;9.05;;;7.00;;
1294;SDS011;640;48.310;11.728;2022-11-15T12:20:29;7.07;;;6.25;;
1294;SDS011;640;48.310;11.728;2022-11-15T12:23:03;10.15;;;6.57;;
1294;SDS011;640;48.310;11.728;2022-11-15T12:25:44;8.23;;;6.13;;
1294;SDS011;640;48.310;11.728;2022-11-15T12:28:15;6.50;;;5.85;;
1294;SDS011;640;48.310;11.728;2022-11-15T12:30:47;6.72;;;5.25;;
1294;SDS011;640;48.310;11.728;2022-11-15T12:33:28;7.78;;;5.68;;
1294;SDS011;640;48.310;11.728;2022-11-15T12:35:58;6.90;;;5.28;;
1294;SDS011;640;48.310;11.728;2022-11-15T12:41:21;7.10;;;5.50;;
1294;SDS011;640;48.310;11.728;2022-11-15T12:43:50;5.53;;;4.72;;
1294;SDS011;640;48.310;11.728;2022-11-15T12:46:20;6.38;;;5.22;;
1294;SDS011;640;48.310;11.728;2022-11-15T12:48:54;5.25;;;4.65;;
1294;SDS011;640;48.310;11.728;2022-11-15T12:57:34;6.38;;;4.88;;
1294;SDS011;640;48.310;11.728;2022-11-15T13:03:18;6.38;;;4.97;;
1294;SDS011;640;48.310;11.728;2022-11-15T13:06:00;5.95;;;5.07;;
1294;SDS011;640;48.310;11.728;2022-11-15T13:08:47;7.05;;;5.20;;
1294;SDS011;640;48.310;11.728;2022-11-15T13:17:31;6.47;;;5.32;;
1294;SDS011;640;48.310;11.728;2022-11-15T13:20:14;6.32;;;5.43;;
1294;SDS011;640;48.310;11.728;2022-11-15T13:22:47;7.28;;;5.07;;
1294;SDS011;640;48.310;11.728;2022-11-15T13:25:22;6.20;;;5.53;;
1294;SDS011;640;48.310;11.728;2022-11-15T13:28:20;9.07;;;5.82;;
1294;SDS011;640;48.310;11.728;2022-11-15T13:30:59;8.48;;;5.68;;
1294;SDS011;640;48.310;11.728;2022-11-15T13:33:30;9.48;;;6.18;;
1294;SDS011;640;48.310;11.728;2022-11-15T13:36:03;6.25;;;5.45;;
1294;SDS011;640;48.310;11.728;2022-11-15T13:38:35;9.40;;;5.85;;
1294;SDS011;640;48.310;11.728;2022-11-15T13:41:13;8.02;;;5.55;;
1294;SDS011;640;48.310;11.728;2022-11-15T13:43:48;7.38;;;5.93;;
1294;SDS011;640;48.310;11.728;2022-11-15T13:46:19;7.50;;;6.15;;
1294;SDS011;640;48.310;11.728;2022-11-15T13:51:21;7.40;;;5.88;;
1294;SDS011;640;48.310;11.728;2022-11-15T13:53:53;7.60;;;5.35;;
1294;SDS011;640;48.310;11.728;2022-11-15T13:56:23;7.95;;;5.80;;
1294;SDS011;640;48.310;11.728;2022-11-15T13:58:55;6.85;;;5.32;;
1294;SDS011;640;48.310;11.728;2022-11-15T14:01:30;6.95;;;5.50;;
1294;SDS011;640;48.310;11.728;2022-11-15T14:04:00;7.18;;;5.90;;
1294;SDS011;640;48.310;11.728;2022-11-15T14:06:29;8.23;;;6.03;;
1294;SDS011;640;48.310;11.728;2022-11-15T14:09:14;7.72;;;6.07;;
1294;SDS011;640;48.310;11.728;2022-11-15T14:11:53;6.82;;;5.55;;
1294;SDS011;640;48.310;11.728;2022-11-15T14:14:24;8.60;;;5.97;;
1294;SDS011;640;48.310;11.728;2022-11-15T14:16:54;6.88;;;6.05;;
1294;SDS011;640;48.310;11.728;2022-11-15T14:19:34;9.68;;;6.10;;
1294;SDS011;640;48.310;11.728;2022-11-15T14:24:36;11.23;;;6.15;;
1294;SDS011;640;48.310;11.728;2022-11-15T14:30:01;8.55;;;6.32;;
1294;SDS011;640;48.310;11.728;2022-11-15T14:32:36;7.75;;;6.05;;
1294;SDS011;640;48.310;11.728;2022-11-15T14:35:11;9.30;;;6.10;;
1294;SDS011;640;48.310;11.728;2022-11-15T14:37:41;7.65;;;5.38;;
1294;SDS011;640;48.310;11.728;2022-11-15T14:40:12;10.68;;;6.00;;
1294;SDS011;640;48.310;11.728;2022-11-15T14:42:41;8.13;;;6.00;;
1294;SDS011;640;48.310;11.728;2022-11-15T14:45:13;9.30;;;6.20;;
1294;SDS011;640;48.310;11.728;2022-11-15T14:47:42;9.48;;;6.20;;
1294;SDS011;640;48.310;11.728;2022-11-15T14:50:11;9.18;;;6.20;;
1294;SDS011;640;48.310;11.728;2022-11-15T14:52:40;8.52;;;6.38;;
1294;SDS011;640;48.310;11.728;2022-11-15T14:55:12;7.68;;;6.13;;
1294;SDS011;640;48.310;11.728;2022-11-15T14:57:44;8.15;;;6.15;;
1294;SDS011;640;48.310;11.728;2022-11-15T15:00:14;8.93;;;6.75;;
1294;SDS011;640;48.310;11.728;2022-11-15T15:02:44;9.60;;;6.20;;
1294;SDS011;640;48.310;11.728;2022-11-15T15:05:13;7.63;;;5.90;;
1294;SDS011;640;48.310;11.728;2022-11-15T15:10:12;7.60;;;5.88;;
1294;SDS011;640;48.310;11.728;2022-11-15T15:13:01;8.13;;;6.03;;
1294;SDS011;640;48.310;11.728;2022-11-15T15:15:31;8.35;;;6.30;;
1294;SDS011;640;48.310;11.728;2022-11-15T15:18:01;8.75;;;7.28;;
1294;SDS011;640;48.310;11.728;2022-11-15T15:20:29;8.20;;;7.03;;
1294;SDS011;640;48.310;11.728;2022-11-15T15:22:57;8.68;;;6.68;;
1294;SDS011;640;48.310;11.728;2022-11-15T15:25:27;8.73;;;6.93;;
1294;SDS011;640;48.310;11.728;2022-11-15T15:27:56;8.48;;;6.43;;
1294;SDS011;640;48.310;11.728;2022-11-15T15:30:25;10.40;;;7.63;;
1294;SDS011;640;48.310;11.728;2022-11-15T15:32:56;11.18;;;7.50;;
1294;SDS011;640;48.310;11.728;2022-11-15T15:35:26;13.00;;;8.00;;
1294;SDS011;640;48.310;11.728;2022-11-15T15:37:57;10.20;;;7.75;;
1294;SDS011;640;48.310;11.728;2022-11-15T15:40:25;10.45;;;7.72;;
1294;SDS011;640;48.310;11.728;2022-11-15T15:42:55;10.57;;;7.93;;
1294;SDS011;640;48.310;11.728;2022-11-15T15:45:24;12.77;;;7.80;;
1294;SDS011;640;48.310;11.728;2022-11-15T15:47:53;11.77;;;7.65;;
1294;SDS011;640;48.310;11.728;2022-11-15T15:50:23;10.23;;;7.70;;
1294;SDS011;640;48.310;11.728;2022-11-15T15:52:53;10.73;;;7.50;;
1294;SDS011;640;48.310;11.728;2022-11-15T15:55:22;10.73;;;8.13;;
1294;SDS011;640;48.310;11.728;2022-11-15T15:57:51;9.63;;;7.47;;
1294;SDS011;640;48.310;11.728;2022-11-15T16:00:20;13.60;;;8.10;;
1294;SDS011;640;48.310;11.728;2022-11-15T16:02:49;11.85;;;7.47;;
1294;SDS011;640;48.310;11.728;2022-11-15T16:05:18;12.30;;;7.60;;
1294;SDS011;640;48.310;11.728;2022-11-15T16:07:48;8.57;;;7.25;;
1294;SDS011;640;48.310;11.728;2022-11-15T16:10:18;10.83;;;7.63;;
1294;SDS011;640;48.310;11.728;2022-11-15T16:12:48;13.45;;;7.63;;
1294;SDS011;640;48.310;11.728;2022-11-15T16:15:17;11.68;;;7.25;;
1294;SDS011;640;48.310;11.728;2022-11-15T16:17:47;13.32;;;7.88;;
1294;SDS011;640;48.310;11.728;2022-11-15T16:20:22;11.07;;;7.53;;